Time;durP1;ratioP1;P1;durP2;ratioP2;P2;SDS_P1;SDS_P2;PMS_P1;PMS_P2;Temp;Humidity;BMP_temperature;BMP_pressure;BME280_temperature;BME280_humidity;BME280_pressure;Samples;Min_cycle;Max_cycle;Signal;HPM_P1;HPM_P2
2023/01/20 00:04:52;;;;;;;;;;;;;;;1.02;82.39;99324.31;1085559;54;19950;-78
2023/01/20 00:06:16;;;;;;;;;;;;;;;1.18;81.36;99319.72;1085922;54;19981;-79
2023/01/20 00:07:43;;;;;;;;;;;;;;;1.09;81.85;99318.56;1086073;54;19939;-78
2023/01/20 00:09:08;;;;;;;;;;;;;;;1.06;82.09;99326.66;1086030;54;19931;-78
2023/01/20 00:17:53;;;;;;;;;;;;;;;1.31;81.38;99330.28;1085701;54;19983;-78
2023/01/20 00:19:05;;;;;;;;;;;;;;;1.38;80.92;99333.34;1085993;54;19942;-79
2023/01/20 00:20:52;;;;;;;;;;;;;;;1.40;80.57;99328.81;1088264;31;20520;-78
2023/01/20 00:22:12;;;;;;;;;;;;;;;1.44;80.55;99332.09;1086210;54;19957;-78
2023/01/20 00:24:02;;;;;;;;;;;;;;;;;;;;;
2023/01/20 00:25:39;;;;;;;;;;;;;;;1.39;80.57;99333.25;1085751;47;19959;-79
2023/01/20 00:29:08;;;;;;;;;;;;;;;1.48;79.97;99331.78;1087085;39;20651;-79
2023/01/20 00:31:56;;;;;;;;;;;;;;;1.28;80.75;99334.91;1086954;54;19951;-79
2023/01/20 00:36:53;;;;;;;;;;;;;;;1.15;82.15;99340.16;1086845;39;20413;-78
2023/01/20 00:41:49;;;;;;;;;;;;;;;1.31;81.28;99345.25;1085316;54;20002;-78
2023/01/20 00:48:12;;;;;;;;;;;;;;;;;;;;;
2023/01/20 00:55:00;;;;;;;;;;;;;;;0.96;82.35;99358.97;1085399;54;20728;-80
2023/01/20 00:56:01;;;;;;;;;;;;;;;0.98;82.33;99360.53;1086443;54;19947;-79
2023/01/20 00:57:05;;;;;;;;;;;;;;;0.95;82.38;99359.91;1086227;54;19951;-79
2023/01/20 00:58:06;;;;;;;;;;;;;;;1.01;82.45;99359.47;1086569;54;20660;-78
2023/01/20 00:59:10;;;;;;;;;;;;;;;0.94;82.47;99364.34;1086483;54;19938;-78
2023/01/20 01:00:12;;;;;;;;;;;;;;;0.90;82.20;99362.81;1086337;54;19951;-78
2023/01/20 01:01:15;;;;;;;;;;;;;;;0.95;82.56;99370.41;1086469;54;20065;-79
2023/01/20 01:02:17;;;;;;;;;;;;;;;0.87;82.71;99370.91;1086777;54;19974;-78
2023/01/20 01:03:20;;;;;;;;;;;;;;;0.86;82.82;99372.72;1086462;47;19943;-78
2023/01/20 01:04:22;;;;;;;;;;;;;;;0.87;82.87;99378.81;1087380;46;19939;-77
2023/01/20 01:05:25;;;;;;;;;;;;;;;0.83;83.11;99378.16;1086749;54;19942;-79
2023/01/20 01:06:29;;;;;;;;;;;;;;;0.77;83.60;99378.56;1086511;54;19996;-78
2023/01/20 01:07:33;;;;;;;;;;;;;;;0.69;83.82;99376.41;1086153;54;19977;-78
2023/01/20 01:08:34;;;;;;;;;;;;;;;0.83;83.83;99383.44;1087361;39;20455;-78
2023/01/20 01:09:38;;;;;;;;;;;;;;;0.75;83.91;99378.69;1086466;54;19950;-79
2023/01/20 01:10:39;;;;;;;;;;;;;;;0.74;84.45;99384.88;1086442;54;19974;-79
2023/01/20 01:11:43;;;;;;;;;;;;;;;0.74;84.35;99381.38;1086445;54;19951;-79
2023/01/20 01:12:44;;;;;;;;;;;;;;;0.71;84.47;99384.25;1086393;54;19954;-78
2023/01/20 01:13:48;;;;;;;;;;;;;;;0.77;84.44;99395.19;1086733;54;19950;-78
2023/01/20 01:14:49;;;;;;;;;;;;;;;0.77;84.35;99392.56;1087312;54;20472;-82
2023/01/20 01:15:52;;;;;;;;;;;;;;;0.76;84.69;99390.03;1087378;54;19958;-78
2023/01/20 01:16:54;;;;;;;;;;;;;;;0.75;84.65;99388.34;1087476;54;19958;-79
2023/01/20 01:17:58;;;;;;;;;;;;;;;0.80;84.65;99388.03;1087982;47;19961;-80
2023/01/20 01:18:59;;;;;;;;;;;;;;;0.74;84.82;99394.53;1087278;54;19969;-79
2023/01/20 01:20:03;;;;;;;;;;;;;;;0.76;84.97;99388.22;1087508;54;19958;-78
2023/01/20 01:21:07;;;;;;;;;;;;;;;0.80;84.42;99391.53;1087327;54;19947;-78
2023/01/20 01:22:14;;;;;;;;;;;;;;;0.88;84.20;99399.78;1087274;54;19947;-78
2023/01/20 01:23:15;;;;;;;;;;;;;;;1.01;83.79;99394.56;1087772;39;20384;-78
2023/01/20 01:24:19;;;;;;;;;;;;;;;1.08;83.30;99398.47;1087060;54;19950;-78
2023/01/20 01:25:20;;;;;;;;;;;;;;;1.13;82.93;99406.06;1087151;54;19972;-78
2023/01/20 01:26:24;;;;;;;;;;;;;;;1.15;82.66;99404.19;1087183;54;19950;-79
2023/01/20 01:27:26;;;;;;;;;;;;;;;1.16;82.31;99398.00;1087135;54;19939;-78
2023/01/20 01:28:30;;;;;;;;;;;;;;;1.17;82.09;99402.31;1087584;54;19942;-78
2023/01/20 01:29:31;;;;;;;;;;;;;;;1.19;81.78;99404.84;1087287;54;19946;-78
2023/01/20 01:30:35;;;;;;;;;;;;;;;1.20;81.70;99407.34;1087024;54;20477;-78
2023/01/20 01:31:37;;;;;;;;;;;;;;;1.19;81.23;99404.84;1087539;47;19943;-77
2023/01/20 01:32:41;;;;;;;;;;;;;;;1.19;81.55;99418.00;1087161;54;19943;-77
2023/01/20 01:33:42;;;;;;;;;;;;;;;1.20;81.53;99410.00;1087003;54;19969;-77
2023/01/20 01:34:46;;;;;;;;;;;;;;;1.23;81.43;99411.56;1086803;54;19961;-78
2023/01/20 01:35:53;;;;;;;;;;;;;;;1.22;81.30;99409.91;1086889;54;19977;-78
2023/01/20 01:36:57;;;;;;;;;;;;;;;1.20;81.17;99425.78;1086836;54;19962;-77
2023/01/20 01:38:01;;;;;;;;;;;;;;;1.17;81.29;99417.25;1086711;54;19954;-78
2023/01/20 01:39:05;;;;;;;;;;;;;;;1.16;81.00;99421.69;1087208;54;19949;-77
2023/01/20 01:40:08;;;;;;;;;;;;;;;1.15;80.73;99419.13;1087020;54;19951;-77
2023/01/20 01:41:12;;;;;;;;;;;;;;;1.16;80.82;99419.06;1086887;54;20002;-78
2023/01/20 01:42:13;;;;;;;;;;;;;;;1.17;80.85;99422.53;1086924;54;19995;-77
2023/01/20 01:43:22;;;;;;;;;;;;;;;1.19;80.97;99420.63;1086941;54;20464;-80
2023/01/20 01:44:25;;;;;;;;;;;;;;;1.19;80.79;99424.09;1087053;54;19950;-77
2023/01/20 01:45:30;;;;;;;;;;;;;;;1.19;81.09;99425.91;1087161;54;19987;-78
2023/01/20 01:46:31;;;;;;;;;;;;;;;1.24;81.14;99429.06;1087018;54;19977;-78
2023/01/20 01:47:36;;;;;;;;;;;;;;;1.27;80.87;99434.13;1087043;54;20014;-80
2023/01/20 01:48:39;;;;;;;;;;;;;;;1.20;80.44;99430.22;1086967;47;20316;-77
2023/01/20 01:49:43;;;;;;;;;;;;;;;1.16;80.73;99429.59;1088294;47;19947;-77
2023/01/20 01:50:46;;;;;;;;;;;;;;;1.19;80.98;99434.63;1086930;54;19935;-78
2023/01/20 01:51:52;;;;;;;;;;;;;;;1.15;80.86;99435.78;1087250;47;19979;-77
2023/01/20 01:52:55;;;;;;;;;;;;;;;1.12;81.40;99440.41;1087015;54;19973;-77
2023/01/20 01:54:04;;;;;;;;;;;;;;;1.18;80.96;99434.75;1087042;54;20035;-78
2023/01/20 01:55:07;;;;;;;;;;;;;;;1.24;80.96;99431.69;1087091;54;19943;-77
2023/01/20 01:56:11;;;;;;;;;;;;;;;1.08;81.26;99434.50;1087191;54;20436;-77
2023/01/20 01:57:12;;;;;;;;;;;;;;;0.96;81.50;99427.41;1087056;54;19943;-78
2023/01/20 01:58:17;;;;;;;;;;;;;;;0.97;81.83;99427.28;1086670;54;19950;-77
2023/01/20 01:59:19;;;;;;;;;;;;;;;0.95;81.84;99428.34;1086700;54;19947;-78
2023/01/20 02:00:23;;;;;;;;;;;;;;;0.93;82.22;99431.06;1086755;54;20036;-78
2023/01/20 02:01:27;;;;;;;;;;;;;;;0.86;82.42;99425.34;1086715;54;19943;-78
2023/01/20 02:02:28;;;;;;;;;;;;;;;0.92;82.43;99434.66;1086954;54;19950;-77
2023/01/20 02:03:37;;;;;;;;;;;;;;;0.85;82.31;99428.09;1086387;54;19951;-78
2023/01/20 02:04:38;;;;;;;;;;;;;;;0.89;82.29;99430.44;1086881;54;19951;-78
2023/01/20 02:05:43;;;;;;;;;;;;;;;0.89;82.29;99429.56;1087099;39;20373;-77
2023/01/20 02:06:46;;;;;;;;;;;;;;;0.89;82.41;99432.19;1087492;39;20534;-77
2023/01/20 02:07:50;;;;;;;;;;;;;;;0.91;82.15;99443.47;1086928;54;19950;-77
2023/01/20 02:08:51;;;;;;;;;;;;;;;0.85;82.53;99435.97;1087166;54;19969;-78
2023/01/20 02:09:58;;;;;;;;;;;;;;;0.86;82.33;99435.88;1090828;39;20287;-77
2023/01/20 02:10:59;;;;;;;;;;;;;;;0.87;82.26;99434.06;1087248;54;19947;-77
2023/01/20 02:12:05;;;;;;;;;;;;;;;0.85;82.30;99435.97;1087360;54;19942;-78
2023/01/20 02:13:07;;;;;;;;;;;;;;;0.90;82.44;99441.78;1087294;54;19942;-77
2023/01/20 02:14:11;;;;;;;;;;;;;;;0.90;82.31;99439.16;1087358;54;19938;-78
2023/01/20 02:15:12;;;;;;;;;;;;;;;0.87;82.34;99439.34;1087797;47;19950;-77
2023/01/20 02:16:19;;;;;;;;;;;;;;;0.88;82.33;99441.03;1087224;54;19951;-78
2023/01/20 02:17:24;;;;;;;;;;;;;;;0.81;82.54;99442.38;1087404;47;19943;-78
2023/01/20 02:18:36;;;;;;;;;;;;;;;0.82;82.50;99444.91;1087331;54;19951;-77
2023/01/20 02:19:54;;;;;;;;;;;;;;;0.83;82.49;99436.06;1087725;47;19943;-78
2023/01/20 02:21:13;;;;;;;;;;;;;;;0.87;82.65;99442.84;1086991;54;19950;-77
2023/01/20 02:22:26;;;;;;;;;;;;;;;0.91;82.25;99440.84;1087821;54;19947;-77
2023/01/20 02:23:34;;;;;;;;;;;;;;;0.92;82.14;99443.38;1087794;54;19947;-78
2023/01/20 02:24:52;;;;;;;;;;;;;;;0.87;82.55;99436.72;1087687;54;20673;-77
2023/01/20 02:26:06;;;;;;;;;;;;;;;0.90;82.39;99447.06;1087610;54;19950;-78
2023/01/20 02:27:12;;;;;;;;;;;;;;;0.89;82.60;99440.09;1087347;54;19946;-78
2023/01/20 02:28:27;;;;;;;;;;;;;;;0.91;82.46;99438.22;1087011;54;20003;-78
2023/01/20 02:29:58;;;;;;;;;;;;;;;0.89;82.46;99434.84;1087028;54;19954;-78
2023/01/20 02:31:17;;;;;;;;;;;;;;;0.89;82.17;99446.22;1087301;54;19950;-79
2023/01/20 02:32:27;;;;;;;;;;;;;;;0.95;82.26;99444.94;1087800;31;20590;-80
2023/01/20 02:33:29;;;;;;;;;;;;;;;0.98;82.12;99442.13;1087193;54;20701;-78
2023/01/20 02:34:34;;;;;;;;;;;;;;;1.04;81.79;99447.00;1086990;54;19946;-80
2023/01/20 02:35:41;;;;;;;;;;;;;;;1.02;81.39;99440.16;1087124;54;19963;-78
2023/01/20 02:36:47;;;;;;;;;;;;;;;1.01;81.52;99444.59;1086949;54;19947;-79
2023/01/20 02:37:54;;;;;;;;;;;;;;;1.04;81.62;99446.16;1086943;54;19994;-79
2023/01/20 02:38:59;;;;;;;;;;;;;;;1.14;81.51;99449.03;1086997;54;19951;-79
2023/01/20 02:40:10;;;;;;;;;;;;;;;1.15;81.27;99450.72;1089183;39;20690;-78
2023/01/20 02:41:16;;;;;;;;;;;;;;;1.13;80.90;99452.63;1087014;54;19951;-78
2023/01/20 04:18:01;;;;;;;;;;;;;;;1.12;81.55;99528.13;1085474;54;19930;-84
2023/01/20 04:19:05;;;;;;;;;;;;;;;1.15;81.47;99530.59;1088662;54;19927;-83
2023/01/20 04:20:10;;;;;;;;;;;;;;;1.18;81.66;99529.53;1088573;54;19935;-84
2023/01/20 04:21:13;;;;;;;;;;;;;;;1.19;81.53;99525.97;1088555;54;19927;-83
2023/01/20 04:22:19;;;;;;;;;;;;;;;1.17;81.38;99533.09;1088589;54;19949;-82
2023/01/20 04:23:23;;;;;;;;;;;;;;;1.20;81.14;99528.50;1089461;39;20628;-85
2023/01/20 04:24:28;;;;;;;;;;;;;;;1.20;81.21;99532.94;1088594;54;20582;-85
2023/01/20 04:25:29;;;;;;;;;;;;;;;1.24;81.24;99537.03;1088624;54;19949;-83
2023/01/20 05:14:43;;;;;;;;;;;;;;;1.15;82.84;99579.75;1089997;54;19945;-83
2023/01/20 05:15:44;;;;;;;;;;;;;;;1.07;83.00;99580.25;1089630;54;20589;-83
2023/01/20 05:16:48;;;;;;;;;;;;;;;0.97;83.49;99585.22;1089562;54;19927;-82
2023/01/20 05:17:49;;;;;;;;;;;;;;;0.95;83.54;99588.91;1090176;54;19972;-81
2023/01/20 05:18:55;;;;;;;;;;;;;;;0.95;83.66;99586.25;1090135;54;19926;-82
2023/01/20 05:19:56;;;;;;;;;;;;;;;0.94;83.52;99590.69;1090171;54;19949;-82
2023/01/20 05:21:01;;;;;;;;;;;;;;;1.00;83.45;99590.31;1090096;54;19927;-84
2023/01/20 05:22:02;;;;;;;;;;;;;;;1.05;83.41;99592.66;1090207;54;19949;-82
2023/01/20 05:23:06;;;;;;;;;;;;;;;1.14;83.16;99591.22;1090158;54;19942;-82
2023/01/20 05:24:08;;;;;;;;;;;;;;;1.17;82.81;99588.41;1090965;46;20006;-82
2023/01/20 05:25:11;;;;;;;;;;;;;;;1.00;83.35;99595.56;1090112;54;19949;-82
2023/01/20 05:26:12;;;;;;;;;;;;;;;0.92;83.88;99596.03;1090103;54;20620;-82
2023/01/20 05:27:16;;;;;;;;;;;;;;;0.90;83.87;99605.81;1090164;54;20014;-82
2023/01/20 05:28:18;;;;;;;;;;;;;;;0.84;83.64;99595.66;1090117;54;19946;-82
2023/01/20 05:29:21;;;;;;;;;;;;;;;0.88;83.59;99602.44;1090094;54;19989;-82
2023/01/20 05:30:25;;;;;;;;;;;;;;;0.84;83.67;99602.72;1090097;54;19933;-82
2023/01/20 05:31:29;;;;;;;;;;;;;;;0.78;83.86;99599.50;1090076;54;19942;-82
2023/01/20 05:32:30;;;;;;;;;;;;;;;0.76;83.92;99604.00;1090088;54;19950;-83
2023/01/20 05:33:34;;;;;;;;;;;;;;;0.75;84.03;99601.50;1090215;54;19927;-82
2023/01/20 05:34:35;;;;;;;;;;;;;;;0.84;83.86;99602.72;1090155;54;19926;-83
2023/01/20 05:35:39;;;;;;;;;;;;;;;0.85;83.92;99601.78;1090155;54;19942;-82
2023/01/20 05:36:40;;;;;;;;;;;;;;;0.88;83.47;99607.72;1090095;54;19934;-82
2023/01/20 05:37:44;;;;;;;;;;;;;;;0.88;83.62;99606.84;1090175;54;19950;-82
2023/01/20 05:38:45;;;;;;;;;;;;;;;0.88;83.49;99606.84;1090159;54;19949;-82
2023/01/20 05:39:48;;;;;;;;;;;;;;;0.90;83.72;99610.25;1090172;54;19943;-83
2023/01/20 05:40:49;;;;;;;;;;;;;;;0.90;83.44;99612.88;1090127;54;19926;-82
2023/01/20 05:41:53;;;;;;;;;;;;;;;0.86;83.73;99613.97;1090117;54;19942;-83
2023/01/20 05:42:57;;;;;;;;;;;;;;;0.85;84.33;99607.06;1090256;54;19926;-84
2023/01/20 05:44:01;;;;;;;;;;;;;;;0.82;84.45;99613.31;1090234;54;19934;-84
2023/01/20 05:45:03;;;;;;;;;;;;;;;0.88;84.30;99612.97;1090248;54;19934;-82
2023/01/20 05:46:09;;;;;;;;;;;;;;;0.80;84.54;99615.22;1090126;54;20018;-84
2023/01/20 05:47:11;;;;;;;;;;;;;;;0.83;84.65;99624.72;1095001;46;19942;-82
2023/01/20 05:48:14;;;;;;;;;;;;;;;0.85;84.62;99617.59;1090187;46;19935;-82
2023/01/20 05:49:16;;;;;;;;;;;;;;;0.84;84.75;99615.88;1090252;54;19973;-83
2023/01/20 05:50:19;;;;;;;;;;;;;;;0.86;84.68;99624.50;1090220;54;19931;-82
2023/01/20 05:51:23;;;;;;;;;;;;;;;0.89;84.95;99624.34;1090101;54;19950;-82
2023/01/20 05:52:24;;;;;;;;;;;;;;;0.88;84.62;99618.25;1090043;54;19938;-81
2023/01/20 05:53:28;;;;;;;;;;;;;;;0.95;85.05;99623.13;1090115;54;19926;-82
2023/01/20 05:54:29;;;;;;;;;;;;;;;0.83;85.41;99628.19;1090161;54;19946;-82
2023/01/20 05:55:33;;;;;;;;;;;;;;;0.78;85.64;99627.63;1090614;46;19934;-83
2023/01/20 05:56:34;;;;;;;;;;;;;;;0.76;85.79;99632.13;1091550;47;19939;-82
2023/01/20 05:57:38;;;;;;;;;;;;;;;0.72;86.00;99626.22;1092814;46;19939;-82
2023/01/20 05:58:39;;;;;;;;;;;;;;;0.73;85.91;99625.28;1091048;46;19943;-85
2023/01/20 05:59:43;;;;;;;;;;;;;;;0.69;85.69;99634.28;1090672;46;19927;-83
2023/01/20 06:00:44;;;;;;;;;;;;;;;0.70;85.53;99625.44;1088659;54;19942;-83
2023/01/20 06:01:51;;;;;;;;;;;;;;;0.71;85.73;99628.94;1088728;54;19942;-83
2023/01/20 06:02:52;;;;;;;;;;;;;;;0.68;85.43;99632.56;1092280;46;19965;-84
2023/01/20 06:03:55;;;;;;;;;;;;;;;0.73;85.30;99632.31;1088721;54;19982;-83
2023/01/20 06:05:00;;;;;;;;;;;;;;;0.77;84.97;99632.03;1091616;46;19942;-82
2023/01/20 06:06:04;;;;;;;;;;;;;;;0.89;84.87;99630.47;1088734;54;19949;-83
2023/01/20 06:07:08;;;;;;;;;;;;;;;0.92;84.64;99630.25;1090861;46;19965;-83
2023/01/20 06:08:09;;;;;;;;;;;;;;;0.91;83.98;99630.34;1089531;46;19999;-83
2023/01/20 06:09:13;;;;;;;;;;;;;;;0.91;83.61;99635.63;1090083;46;19954;-82
2023/01/20 06:10:15;;;;;;;;;;;;;;;0.90;83.43;99636.56;1088711;54;19946;-83
2023/01/20 06:11:19;;;;;;;;;;;;;;;0.89;83.52;99645.38;1095324;46;19934;-83
2023/01/20 06:12:20;;;;;;;;;;;;;;;0.91;83.50;99643.53;1088660;54;19943;-84
2023/01/20 09:13:17;;;;;;;;;;;;;;;1.39;78.03;99870.63;1088389;54;19950;-82
2023/01/20 09:14:32;;;;;;;;;;;;;;;1.40;78.12;99860.91;1087956;54;19979;-85
2023/01/20 09:15:33;;;;;;;;;;;;;;;1.47;77.89;99866.69;1099236;39;20625;-82
2023/01/20 09:18:59;;;;;;;;;;;;;;;1.51;77.72;99868.22;1087809;54;19941;-83
2023/01/20 09:23:36;;;;;;;;;;;;;;;1.88;76.18;99876.53;1088283;54;19943;-84
2023/01/20 09:24:40;;;;;;;;;;;;;;;1.85;75.22;99874.06;1091713;47;19950;-83
2023/01/20 09:36:26;;;;;;;;;;;;;;;2.45;71.54;99869.53;1088703;54;19946;-83
2023/01/20 10:23:38;;;;;;;;;;;;;;;2.83;68.14;99911.13;1087218;54;19939;-78
2023/01/20 10:46:42;;;;;;;;;;;;;;;;;;;;;
2023/01/20 10:49:57;;;;;;;;;;;;;;;;;;;;;
2023/01/20 10:51:32;;;;;;;;;;;;;;;4.31;62.78;99896.88;1088089;54;19977;-82
2023/01/20 11:14:03;;;;;;;;;;;;;;;4.77;60.86;99906.81;1085880;54;19954;-80
2023/01/20 11:15:18;;;;;;;;;;;;;;;4.84;60.47;99913.34;1087190;54;19942;-80
2023/01/20 11:16:24;;;;;;;;;;;;;;;4.79;60.87;99910.19;1087642;54;20657;-79
2023/01/20 11:17:26;;;;;;;;;;;;;;;4.94;61.77;99910.03;1089237;39;20567;-79
2023/01/20 11:18:32;;;;;;;;;;;;;;;4.95;60.75;99911.72;1088186;54;19942;-80
2023/01/20 11:19:49;;;;;;;;;;;;;;;4.40;61.23;99908.59;1087321;54;20004;-79
2023/01/20 11:20:51;;;;;;;;;;;;;;;3.97;62.19;99912.44;1087285;54;19953;-81
2023/01/20 11:21:55;;;;;;;;;;;;;;;4.14;62.84;99919.19;1088722;39;20587;-82
2023/01/20 11:22:59;;;;;;;;;;;;;;;4.27;62.94;99914.75;1088032;54;19991;-81
2023/01/20 11:24:04;;;;;;;;;;;;;;;4.33;62.87;99913.50;1087906;54;19938;-81
2023/01/20 11:25:20;;;;;;;;;;;;;;;4.32;62.85;99906.50;1087576;54;19957;-80
2023/01/20 11:26:24;;;;;;;;;;;;;;;3.73;63.58;99911.34;1087552;54;20025;-80
2023/01/20 11:27:29;;;;;;;;;;;;;;;3.40;64.12;99914.50;1087718;54;19935;-80
2023/01/20 11:28:38;;;;;;;;;;;;;;;3.22;64.92;99921.81;1087753;54;19943;-81
2023/01/20 11:29:44;;;;;;;;;;;;;;;3.29;65.03;99912.53;1087079;54;19970;-80
2023/01/20 11:30:49;;;;;;;;;;;;;;;3.14;65.63;99924.97;1087219;54;19973;-81
2023/01/20 11:31:54;;;;;;;;;;;;;;;3.16;65.58;99917.78;1086659;54;19951;-81
2023/01/20 11:33:08;;;;;;;;;;;;;;;3.12;65.64;99916.28;1087070;54;19942;-81
2023/01/20 11:34:21;;;;;;;;;;;;;;;3.23;66.10;99919.06;1086927;54;19951;-81
2023/01/20 11:35:26;;;;;;;;;;;;;;;3.13;66.20;99925.91;1086829;54;19949;-81
2023/01/20 11:36:30;;;;;;;;;;;;;;;2.97;66.47;99924.28;1086172;54;19962;-80
2023/01/20 11:37:39;;;;;;;;;;;;;;;2.91;66.61;99924.69;1085917;54;19986;-80
2023/01/20 11:38:41;;;;;;;;;;;;;;;2.87;66.99;99927.63;1086278;39;20393;-80
2023/01/20 11:39:46;;;;;;;;;;;;;;;2.86;67.37;99924.09;1087493;54;19958;-80
2023/01/20 11:49:31;;;;;;;;;;;;;;;2.85;66.98;99930.34;1087153;54;19973;-80
2023/01/20 11:50:34;;;;;;;;;;;;;;;3.06;66.41;99921.97;1085817;54;19977;-80
2023/01/20 11:51:45;;;;;;;;;;;;;;;3.13;65.76;99917.97;1086131;54;19953;-80
2023/01/20 11:52:47;;;;;;;;;;;;;;;3.27;65.97;99919.72;1087525;54;19943;-82
2023/01/20 11:54:30;;;;;;;;;;;;;;;3.16;65.91;99923.06;1087748;54;19951;-81
2023/01/20 11:55:32;;;;;;;;;;;;;;;3.11;66.31;99926.00;1086850;54;19949;-79
2023/01/20 11:56:40;;;;;;;;;;;;;;;3.02;66.48;99920.50;1086769;54;19946;-80
2023/01/20 11:57:45;;;;;;;;;;;;;;;3.20;66.43;99914.00;1086939;54;19935;-81
2023/01/20 11:58:54;;;;;;;;;;;;;;;3.35;65.95;99911.28;1087471;54;20007;-80
2023/01/20 12:00:13;;;;;;;;;;;;;;;3.45;65.17;99917.66;1086869;54;19950;-79
2023/01/20 12:01:23;;;;;;;;;;;;;;;3.48;65.10;99917.47;1087149;54;19942;-80
2023/01/20 12:23:31;;;;;;;;;;;;;;;3.29;64.83;99923.13;1087026;54;19962;-81
2023/01/20 12:27:11;;;;;;;;;;;;;;;3.56;64.20;99925.72;1069735;54;20009;31
2023/01/20 12:28:21;;;;;;;;;;;;;;;3.61;64.27;99921.91;1088175;54;19939;-82
2023/01/20 12:29:30;;;;;;;;;;;;;;;3.46;64.17;99921.13;1088097;54;19939;-83
2023/01/20 12:30:39;;;;;;;;;;;;;;;3.20;64.72;99924.59;1088635;46;19943;-82
2023/01/20 12:31:47;;;;;;;;;;;;;;;3.17;65.08;99924.78;1088005;54;19934;-82
2023/01/20 12:32:49;;;;;;;;;;;;;;;3.19;65.28;99922.03;1088068;54;20328;-83
2023/01/20 12:34:08;;;;;;;;;;;;;;;3.15;65.31;99931.94;1088135;54;19950;-84
2023/01/20 12:35:13;;;;;;;;;;;;;;;3.24;65.38;99922.59;1087941;54;19942;-83
2023/01/20 12:36:30;;;;;;;;;;;;;;;3.38;65.03;99927.78;1087985;54;19942;-82
2023/01/20 12:37:43;;;;;;;;;;;;;;;3.55;64.69;99924.03;1088116;54;19986;-82
2023/01/20 12:38:52;;;;;;;;;;;;;;;3.63;64.42;99920.88;1088099;46;19942;-82
2023/01/20 12:41:45;;;;;;;;;;;;;;;3.72;63.86;99935.25;1087820;54;20010;-83
2023/01/20 12:43:06;;;;;;;;;;;;;;;3.76;63.66;99931.47;1087830;54;19998;-83
2023/01/20 12:44:21;;;;;;;;;;;;;;;3.78;63.77;99918.97;1087757;54;19935;-81
2023/01/20 12:45:44;;;;;;;;;;;;;;;3.69;63.66;99922.25;1087895;54;19957;-81
2023/01/20 12:47:03;;;;;;;;;;;;;;;3.72;64.07;99927.34;1088108;54;19994;-82
2023/01/20 12:48:19;;;;;;;;;;;;;;;3.58;64.22;99925.63;1089034;47;20729;-83
2023/01/20 12:49:36;;;;;;;;;;;;;;;3.48;64.46;99927.19;1088055;54;19930;-83
2023/01/20 12:50:53;;;;;;;;;;;;;;;3.62;64.62;99932.41;1088016;54;20680;-83
2023/01/20 12:52:03;;;;;;;;;;;;;;;3.79;64.18;99931.25;1087955;54;19946;-83
2023/01/20 12:53:19;;;;;;;;;;;;;;;3.81;63.18;99929.34;1087994;54;19994;-83
2023/01/20 12:58:22;;;;;;;;;;;;;;;3.90;63.45;99922.59;1088839;54;20014;-84
2023/01/20 13:00:50;;;;;;;;;;;;;;;3.68;63.02;99925.88;1081398;39;20017;31
2023/01/20 13:02:09;;;;;;;;;;;;;;;3.95;62.78;99922.28;1069923;54;21407;31
2023/01/20 13:06:44;;;;;;;;;;;;;;;4.17;62.74;99919.84;1070076;54;19942;31
2023/01/20 13:07:54;;;;;;;;;;;;;;;4.21;62.39;99925.75;1073956;54;19954;31
2023/01/20 13:11:38;;;;;;;;;;;;;;;4.18;61.93;99926.81;1067276;54;19947;31
2023/01/20 13:12:51;;;;;;;;;;;;;;;4.16;62.30;99922.59;1070059;54;20408;31
2023/01/20 13:15:05;;;;;;;;;;;;;;;3.93;62.82;99921.53;1088135;54;19938;-83
2023/01/20 13:16:16;;;;;;;;;;;;;;;3.74;63.00;99933.38;1097611;46;20650;-85
2023/01/20 13:17:29;;;;;;;;;;;;;;;3.72;62.99;99914.09;1091410;46;19963;-82
2023/01/20 13:18:48;;;;;;;;;;;;;;;3.88;63.17;99914.75;1088402;54;19966;-83
2023/01/20 13:19:53;;;;;;;;;;;;;;;3.89;62.42;99920.91;1088418;54;19966;-84
2023/01/20 13:20:55;;;;;;;;;;;;;;;4.00;62.41;99920.16;1088167;47;19966;-83
2023/01/20 13:22:04;;;;;;;;;;;;;;;4.06;62.05;99922.41;1088010;54;19927;-82
2023/01/20 13:23:10;;;;;;;;;;;;;;;4.11;61.84;99930.84;1088240;54;19942;-83
2023/01/20 13:24:28;;;;;;;;;;;;;;;4.09;61.62;99919.53;1088472;46;19974;-82
2023/01/20 13:25:41;;;;;;;;;;;;;;;3.99;61.74;99921.09;1087946;54;19943;-83
2023/01/20 13:28:21;;;;;;;;;;;;;;;3.78;61.65;99923.44;1089747;46;19927;-84
2023/01/20 13:29:47;;;;;;;;;;;;;;;3.74;61.49;99928.09;1088950;46;19950;-82
2023/01/20 13:31:02;;;;;;;;;;;;;;;3.86;61.88;99929.91;1088596;54;19942;-83
2023/01/20 13:32:27;;;;;;;;;;;;;;;3.79;62.07;99931.25;1088261;54;19989;-83
2023/01/20 13:33:35;;;;;;;;;;;;;;;3.83;61.78;99932.75;1088745;46;19973;-82
2023/01/20 13:34:42;;;;;;;;;;;;;;;3.77;61.43;99933.16;1088474;54;19933;-82
2023/01/20 13:35:45;;;;;;;;;;;;;;;3.86;61.64;99929.03;1091412;46;19965;-80
2023/01/20 13:37:06;;;;;;;;;;;;;;;3.97;61.33;99928.31;1088481;46;19939;-80
2023/01/20 13:45:39;;;;;;;;;;;;;;;3.99;60.41;99937.84;1088399;54;19935;-84
2023/01/20 13:46:57;;;;;;;;;;;;;;;3.95;60.41;99938.16;1088290;54;19943;-82
2023/01/20 13:48:23;;;;;;;;;;;;;;;4.02;60.64;99942.06;1092567;46;19964;-80
2023/01/20 13:49:29;;;;;;;;;;;;;;;3.90;60.62;99938.47;1090443;46;19933;-84
2023/01/20 13:50:34;;;;;;;;;;;;;;;3.87;60.47;99939.50;1089795;46;19943;-84
2023/01/20 13:51:53;;;;;;;;;;;;;;;3.79;60.52;99947.13;1089343;46;19963;-83
2023/01/20 13:53:11;;;;;;;;;;;;;;;3.78;60.23;99940.13;1098093;46;19963;-81
2023/01/20 13:54:29;;;;;;;;;;;;;;;3.81;60.26;99945.22;1087858;54;19942;-80
2023/01/20 13:56:43;;;;;;;;;;;;;;;3.79;59.79;99946.28;1083723;54;21534;31
2023/01/20 14:02:54;;;;;;;;;;;;;;;3.63;59.98;99947.31;1088390;54;19958;-83
2023/01/20 14:04:03;;;;;;;;;;;;;;;3.69;59.79;99946.91;1088393;54;19942;-83
2023/01/20 14:05:21;;;;;;;;;;;;;;;3.86;60.10;99940.47;1088161;54;19943;-82
2023/01/20 14:06:28;;;;;;;;;;;;;;;3.86;59.88;99958.13;1088169;54;19931;-83
2023/01/20 14:07:31;;;;;;;;;;;;;;;3.82;59.83;99946.09;1088151;54;19938;-83
2023/01/20 14:08:42;;;;;;;;;;;;;;;3.77;59.95;99951.69;1088155;54;19930;-82
2023/01/20 14:10:50;;;;;;;;;;;;;;;3.65;60.23;99947.22;1088908;54;19926;-84
2023/01/20 14:11:55;;;;;;;;;;;;;;;3.57;60.00;99948.56;1088233;54;19942;-82
2023/01/20 14:13:23;;;;;;;;;;;;;;;3.58;60.81;99959.97;1088051;54;19927;-81
2023/01/20 14:14:25;;;;;;;;;;;;;;;3.67;61.03;99950.59;1088325;54;19939;-84
2023/01/20 14:15:34;;;;;;;;;;;;;;;3.57;60.16;99959.16;1094401;46;19947;-84
2023/01/20 14:16:59;;;;;;;;;;;;;;;;;;;;;
2023/01/20 14:20:27;;;;;;;;;;;;;;;3.61;60.81;99958.94;1089086;54;19938;-84
2023/01/20 14:23:17;;;;;;;;;;;;;;;3.48;60.84;99954.47;1087662;54;20012;-82
2023/01/20 14:24:28;;;;;;;;;;;;;;;3.51;61.26;99954.25;1088002;54;19958;-82
2023/01/20 14:25:31;;;;;;;;;;;;;;;3.49;61.17;99958.81;1088153;54;19948;-82
2023/01/20 14:27:50;;;;;;;;;;;;;;;3.40;61.04;99965.53;1077586;54;20973;-86
2023/01/20 14:29:00;;;;;;;;;;;;;;;3.51;61.15;99967.47;1080177;54;20682;-84
2023/01/20 14:31:19;;;;;;;;;;;;;;;3.69;60.66;99967.19;1074046;54;20982;31
2023/01/20 14:33:44;;;;;;;;;;;;;;;3.72;60.29;99967.00;1081283;54;19959;-85
2023/01/20 14:35:53;;;;;;;;;;;;;;;3.77;60.13;99970.19;1083941;54;19943;31
2023/01/20 14:37:19;;;;;;;;;;;;;;;3.77;59.97;99967.56;1088605;54;19934;-86
2023/01/20 14:38:21;;;;;;;;;;;;;;;3.89;60.07;99973.81;1088646;54;19950;-85
2023/01/20 14:42:58;;;;;;;;;;;;;;;3.74;60.38;99970.38;1086478;39;20722;31
2023/01/20 14:45:20;;;;;;;;;;;;;;;3.46;61.36;99981.94;1088059;54;19958;-85
2023/01/20 14:47:33;;;;;;;;;;;;;;;3.67;61.38;99979.69;1088390;54;19930;-85
2023/01/20 14:48:35;;;;;;;;;;;;;;;3.75;61.23;99977.38;1088057;54;19985;-84
2023/01/20 14:50:44;;;;;;;;;;;;;;;3.74;61.32;99978.31;1072150;54;21858;31
2023/01/20 14:54:36;;;;;;;;;;;;;;;3.75;61.53;99978.22;1088024;54;20594;-83
2023/01/20 15:00:15;;;;;;;;;;;;;;;3.63;62.41;99975.53;1087967;54;20260;-82
2023/01/20 15:01:23;;;;;;;;;;;;;;;3.71;62.29;99986.44;1088357;54;19942;-84
2023/01/20 15:02:29;;;;;;;;;;;;;;;3.67;62.47;99985.81;1088337;54;19977;-82
2023/01/20 15:03:33;;;;;;;;;;;;;;;3.59;62.55;99986.31;1088467;54;19939;-83
2023/01/20 15:04:36;;;;;;;;;;;;;;;3.56;63.13;99989.19;1088382;54;19942;-85
2023/01/20 15:05:40;;;;;;;;;;;;;;;3.46;63.06;99987.22;1088433;54;19949;-84
2023/01/20 15:06:42;;;;;;;;;;;;;;;3.43;63.14;99994.44;1088244;54;20287;-84
2023/01/20 15:07:46;;;;;;;;;;;;;;;3.36;63.52;99989.63;1088352;54;19950;-83
2023/01/20 15:08:51;;;;;;;;;;;;;;;3.35;63.52;99991.44;1088494;54;19939;-83
2023/01/20 15:09:59;;;;;;;;;;;;;;;3.27;63.68;99994.56;1088541;54;19930;-82